createdAt,value
2019-02-10T00:00:00.360Z,95240.59
2019-02-10T00:02:31.866Z,95233.17
2019-02-10T00:05:03.222Z,95230.70
2019-02-10T00:07:34.824Z,95236.08
2019-02-10T00:10:06.510Z,95233.62
2019-02-10T00:12:37.948Z,95241.13
2019-02-10T00:15:09.520Z,95236.98
2019-02-10T00:17:42.574Z,95233.80
2019-02-10T00:20:14.056Z,95226.88
2019-02-10T00:22:45.554Z,95223.04
2019-02-10T00:25:17.158Z,95220.71
2019-02-10T00:27:49.574Z,95203.56
2019-02-10T00:30:21.031Z,95206.63
2019-02-10T00:32:52.441Z,95204.34
2019-02-10T00:35:23.839Z,95203.32
2019-02-10T00:37:56.676Z,95200.85
2019-02-10T00:40:28.101Z,95194.19
2019-02-10T00:42:59.518Z,95190.87
2019-02-10T00:45:31.059Z,95180.33
2019-02-10T00:48:02.411Z,95180.39
2019-02-10T00:50:33.827Z,95181.01
2019-02-10T00:53:05.284Z,95186.16
2019-02-10T00:55:36.670Z,95183.09
2019-02-10T00:58:08.078Z,95177.75
2019-02-10T01:00:39.529Z,95177.69
2019-02-10T01:03:11.036Z,95178.03
2019-02-10T01:05:42.611Z,95181.43
2019-02-10T01:08:14.058Z,95178.57
2019-02-10T01:10:45.525Z,95179.53
2019-02-10T01:13:16.990Z,95173.39
2019-02-10T01:15:48.462Z,95182.18
2019-02-10T01:18:20.029Z,95174.88
2019-02-10T01:20:51.466Z,95170.48
2019-02-10T01:23:22.950Z,95167.73
2019-02-10T01:25:54.313Z,95162.63
2019-02-10T01:28:25.709Z,95155.78
2019-02-10T01:30:58.260Z,95145.17
2019-02-10T01:33:29.721Z,95142.56
2019-02-10T01:36:01.110Z,95138.75
2019-02-10T01:38:32.471Z,95138.91
2019-02-10T01:41:04.082Z,95133.38
2019-02-10T01:43:35.554Z,95129.90
2019-02-10T01:46:07.523Z,95121.61
2019-02-10T01:48:38.964Z,95122.65
2019-02-10T01:51:10.438Z,95123.83
2019-02-10T01:53:41.784Z,95120.67
2019-02-10T01:56:13.230Z,95116.27
2019-02-10T01:58:44.698Z,95115.49
2019-02-10T02:01:16.246Z,95107.23
2019-02-10T02:03:47.688Z,95106.20
2019-02-10T02:06:19.177Z,95106.16
2019-02-10T02:08:50.689Z,95101.03
2019-02-10T02:11:22.164Z,95098.48
2019-02-10T02:13:53.739Z,95088.48
2019-02-10T02:16:25.577Z,95094.03
2019-02-10T02:18:56.997Z,95088.69
2019-02-10T02:21:28.464Z,95076.81
2019-02-10T02:23:59.926Z,95078.27
2019-02-10T02:26:31.471Z,95072.55
2019-02-10T02:29:02.810Z,95066.25
2019-02-10T02:31:34.252Z,95062.47
2019-02-10T02:34:05.662Z,95054.23
2019-02-10T02:36:42.353Z,95049.67
2019-02-10T02:39:13.851Z,95047.56
2019-02-10T02:41:45.347Z,95047.56
2019-02-10T02:44:16.780Z,95042.33
2019-02-10T02:46:48.150Z,95039.78
2019-02-10T02:49:21.114Z,95034.95
2019-02-10T02:51:52.582Z,95033.42
2019-02-10T02:54:23.939Z,95024.63
2019-02-10T02:56:55.441Z,95023.67
2019-02-10T02:59:26.928Z,95022.14
2019-02-10T03:01:58.383Z,95024.64
2019-02-10T03:04:29.819Z,95025.90
2019-02-10T03:07:01.281Z,95020.56
2019-02-10T03:09:32.635Z,95018.28
2019-02-10T03:12:04.076Z,95010.65
2019-02-10T03:14:35.437Z,95006.17
2019-02-10T03:17:06.889Z,95006.52
2019-02-10T03:19:38.294Z,95001.99
2019-02-10T03:22:09.963Z,95000.59
2019-02-10T03:24:41.465Z,95002.26
2019-02-10T03:27:12.865Z,94995.69
2019-02-10T03:29:45.347Z,94989.70
2019-02-10T03:32:16.749Z,94986.33
2019-02-10T03:34:48.197Z,94991.16
2019-02-10T03:37:26.850Z,94975.63
2019-02-10T03:39:52.753Z,94972.52
2019-02-10T03:42:24.235Z,94962.73
2019-02-10T03:44:55.635Z,94948.63
2019-02-10T03:47:27.059Z,94948.25
2019-02-10T03:49:58.491Z,94937.33
2019-02-10T03:52:29.929Z,94941.32
2019-02-10T03:55:01.392Z,94930.02
2019-02-10T03:57:32.942Z,94926.09
2019-02-10T04:00:04.475Z,94928.10
2019-02-10T04:02:37.317Z,94919.55
2019-02-10T04:05:08.755Z,94915.99
2019-02-10T04:07:40.246Z,94914.33
2019-02-10T04:10:11.840Z,94912.89
2019-02-10T04:12:44.521Z,94913.22
2019-02-10T04:15:16.041Z,94907.30
2019-02-10T04:17:47.419Z,94898.82
2019-02-10T04:20:18.904Z,94885.67
2019-02-10T04:22:50.377Z,94900.01
2019-02-10T04:25:21.790Z,94889.44
2019-02-10T04:27:53.168Z,94877.91
2019-02-10T04:30:24.526Z,94876.52
2019-02-10T04:32:55.986Z,94868.68
2019-02-10T04:35:29.852Z,94863.48
2019-02-10T04:38:01.341Z,94864.66
2019-02-10T04:40:32.749Z,94854.46
2019-02-10T04:43:04.206Z,94859.10
2019-02-10T04:45:35.559Z,94851.77
2019-02-10T04:48:07.019Z,94837.11
2019-02-10T04:50:38.795Z,94845.91
2019-02-10T04:53:10.217Z,94838.95
2019-02-10T04:55:41.564Z,94819.56
2019-02-10T04:58:13.029Z,94815.52
2019-02-10T05:00:44.674Z,94807.12
2019-02-10T05:03:16.123Z,94810.94
2019-02-10T05:05:47.566Z,94804.20
2019-02-10T05:08:19.018Z,94788.30
2019-02-10T05:10:50.578Z,94797.88
2019-02-10T05:13:21.981Z,94794.81
2019-02-10T05:15:53.401Z,94784.94
2019-02-10T05:18:25.037Z,94786.15
2019-02-10T05:20:56.387Z,94767.52
2019-02-10T05:23:27.772Z,94763.33
2019-02-10T05:25:59.208Z,94757.01
2019-02-10T05:28:30.588Z,94756.92
2019-02-10T05:31:02.024Z,94746.94
2019-02-10T05:33:33.440Z,94740.05
2019-02-10T05:36:04.901Z,94748.83
2019-02-10T05:38:36.350Z,94750.12
2019-02-10T05:41:07.769Z,94753.41
2019-02-10T05:43:39.229Z,94742.17
2019-02-10T05:46:10.670Z,94725.92
2019-02-10T05:48:42.112Z,94729.98
2019-02-10T05:51:13.588Z,94713.14
2019-02-10T05:53:45.054Z,94712.34
2019-02-10T05:56:17.610Z,94698.41
2019-02-10T05:58:49.096Z,94685.53
2019-02-10T06:02:25.726Z,94689.16
2019-02-10T06:05:00.498Z,94677.47
2019-02-10T06:07:31.911Z,94666.11
2019-02-10T06:10:03.359Z,94660.87
2019-02-10T06:12:35.280Z,94652.31
2019-02-10T06:15:07.826Z,94649.17
2019-02-10T06:17:39.304Z,94655.01
2019-02-10T06:20:11.098Z,94658.29
2019-02-10T06:22:42.541Z,94654.90
2019-02-10T06:25:15.095Z,94647.05
2019-02-10T06:27:46.553Z,94629.75
2019-02-10T06:30:18.031Z,94627.64
2019-02-10T06:32:49.513Z,94639.69
2019-02-10T06:35:20.941Z,94646.23
2019-02-10T06:37:52.293Z,94651.73
2019-02-10T06:40:23.785Z,94649.50
2019-02-10T06:42:55.121Z,94635.95
2019-02-10T06:45:26.566Z,94626.01
2019-02-10T06:47:57.940Z,94619.79
2019-02-10T06:50:29.374Z,94611.84
2019-02-10T06:53:00.819Z,94616.64
2019-02-10T06:55:32.276Z,94612.46
2019-02-10T06:58:03.709Z,94610.34
2019-02-10T07:00:56.884Z,94616.89
2019-02-10T07:04:03.452Z,94618.40
2019-02-10T07:06:34.923Z,94618.06
2019-02-10T07:09:07.506Z,94621.08
2019-02-10T07:11:38.874Z,94623.52
2019-02-10T07:14:35.053Z,94612.59
2019-02-10T07:17:41.953Z,94602.86
2019-02-10T07:20:42.519Z,94608.59
2019-02-10T07:24:24.418Z,94599.94
2019-02-10T07:26:57.724Z,94586.19
2019-02-10T07:30:02.724Z,94567.36
2019-02-10T07:32:41.621Z,94564.50
2019-02-10T07:35:55.344Z,94566.27
2019-02-10T07:39:23.739Z,94563.73
2019-02-10T07:42:57.246Z,94565.17
2019-02-10T07:46:12.694Z,94548.26
2019-02-10T07:49:19.435Z,94516.86
2019-02-10T07:53:00.879Z,94495.29
2019-02-10T07:56:25.062Z,94518.06
2019-02-10T08:00:07.676Z,94543.02
2019-02-10T08:03:26.412Z,94489.64
2019-02-10T08:06:43.529Z,94557.84
2019-02-10T08:09:54.448Z,94589.20
2019-02-10T08:13:01.152Z,94587.03
2019-02-10T08:16:16.584Z,94563.74
2019-02-10T08:19:45.422Z,94562.95
2019-02-10T08:23:06.724Z,94563.50
2019-02-10T08:26:41.943Z,94553.76
2019-02-10T08:29:58.918Z,94539.80
2019-02-10T08:33:09.615Z,94527.61
2019-02-10T08:36:10.681Z,94511.80
2019-02-10T08:39:50.139Z,94504.56
2019-02-10T08:43:00.916Z,94486.12
2019-02-10T08:46:39.322Z,94487.47
2019-02-10T08:49:29.495Z,94470.34
2019-02-10T08:52:28.788Z,94465.42
2019-02-10T08:55:02.521Z,94456.50
2019-02-10T08:57:33.990Z,94442.04
2019-02-10T09:00:05.819Z,94430.33
2019-02-10T09:02:37.324Z,94413.32
2019-02-10T09:05:09.141Z,94403.22
2019-02-10T09:07:40.569Z,94388.69
2019-02-10T09:10:13.101Z,94390.52
2019-02-10T09:12:44.528Z,94387.64
2019-02-10T09:15:15.977Z,94381.53
2019-02-10T09:17:47.458Z,94376.90
2019-02-10T09:20:18.921Z,94368.86
2019-02-10T09:22:50.425Z,94366.96
2019-02-10T09:25:21.864Z,94361.91
2019-02-10T09:27:53.288Z,94352.91
2019-02-10T09:30:24.825Z,94346.37
2019-02-10T09:32:56.273Z,94345.75
2019-02-10T09:35:27.783Z,94338.21
2019-02-10T09:37:59.226Z,94329.73
2019-02-10T09:40:30.663Z,94325.78
2019-02-10T09:43:02.101Z,94313.17
2019-02-10T09:45:33.552Z,94309.53
2019-02-10T09:48:04.993Z,94302.04
2019-02-10T09:50:36.432Z,94294.43
2019-02-10T09:53:07.875Z,94297.23
2019-02-10T09:55:39.313Z,94301.38
2019-02-10T09:58:10.735Z,94296.89
2019-02-10T10:00:42.189Z,94292.59
2019-02-10T10:03:13.661Z,94299.28
2019-02-10T10:05:45.094Z,94297.64
2019-02-10T10:08:16.534Z,94294.70
2019-02-10T10:10:48.192Z,94282.85
2019-02-10T10:13:19.624Z,94271.98
2019-02-10T10:15:51.101Z,94277.17
2019-02-10T10:18:22.602Z,94271.98
2019-02-10T10:20:54.261Z,94263.21
2019-02-10T10:23:25.721Z,94263.69
2019-02-10T10:25:57.292Z,94255.58
2019-02-10T10:28:28.790Z,94259.78
2019-02-10T10:31:00.243Z,94246.95
2019-02-10T10:33:32.027Z,94232.66
2019-02-10T10:36:03.643Z,94227.77
2019-02-10T10:38:35.138Z,94222.06
2019-02-10T10:41:07.754Z,94225.01
2019-02-10T10:43:39.358Z,94209.16
2019-02-10T10:46:10.793Z,94209.12
2019-02-10T10:48:42.243Z,94191.82
2019-02-10T10:51:13.712Z,94179.63
2019-02-10T10:53:45.227Z,94167.52
2019-02-10T10:56:16.679Z,94151.42
2019-02-10T10:58:48.150Z,94144.82
2019-02-10T11:01:25.192Z,94141.73
2019-02-10T11:03:53.420Z,94124.81
2019-02-10T11:06:26.756Z,94111.97
2019-02-10T11:08:59.818Z,94112.34
2019-02-10T11:11:31.397Z,94109.98
2019-02-10T11:14:03.238Z,94099.38
2019-02-10T11:16:34.793Z,94096.50
2019-02-10T11:19:06.257Z,94085.16
2019-02-10T11:21:38.762Z,94079.64
2019-02-10T11:24:10.259Z,94075.37
2019-02-10T11:26:41.617Z,94057.01
2019-02-10T11:29:15.977Z,94056.70
2019-02-10T11:31:49.079Z,94061.74
2019-02-10T11:34:20.452Z,94044.61
2019-02-10T11:36:51.909Z,94035.22
2019-02-10T11:39:23.363Z,94029.17
2019-02-10T11:41:54.935Z,94015.46
2019-02-10T11:44:26.333Z,94019.75
2019-02-10T11:46:57.835Z,94008.94
2019-02-10T11:49:29.276Z,93996.70
2019-02-10T11:52:00.783Z,93995.09
2019-02-10T11:54:32.236Z,93988.48
2019-02-10T11:57:03.727Z,93987.70
2019-02-10T11:59:35.308Z,93985.77
2019-02-10T12:02:07.034Z,93974.58
2019-02-10T12:04:38.419Z,93979.34
2019-02-10T12:07:10.007Z,93973.94
2019-02-10T12:09:41.547Z,93970.14
2019-02-10T12:12:13.037Z,93963.02
2019-02-10T12:14:44.460Z,93958.09
2019-02-10T12:17:15.929Z,93942.39
2019-02-10T12:19:47.470Z,93944.84
2019-02-10T12:22:18.994Z,93932.63
2019-02-10T12:24:50.433Z,93926.26
2019-02-10T12:27:21.932Z,93927.20
2019-02-10T12:29:53.373Z,93922.17
2019-02-10T12:32:24.906Z,93920.57
2019-02-10T12:34:56.384Z,93906.50
2019-02-10T12:37:32.468Z,93900.44
2019-02-10T12:40:01.097Z,93892.16
2019-02-10T12:42:32.646Z,93883.52
2019-02-10T12:45:04.160Z,93884.35
2019-02-10T12:47:35.646Z,93878.28
2019-02-10T12:50:09.084Z,93858.97
2019-02-10T12:52:40.636Z,93875.67
2019-02-10T12:55:12.251Z,93856.89
2019-02-10T12:57:43.749Z,93840.78
2019-02-10T13:00:16.606Z,93828.73
2019-02-10T13:02:48.187Z,93820.98
2019-02-10T13:05:19.639Z,93808.73
2019-02-10T13:07:51.035Z,93807.44
2019-02-10T13:10:22.525Z,93798.59
2019-02-10T13:12:54.061Z,93780.63
2019-02-10T13:15:25.570Z,93780.14
2019-02-10T13:17:57.020Z,93775.70
2019-02-10T13:20:28.498Z,93767.36
2019-02-10T13:23:01.135Z,93767.63
2019-02-10T13:25:32.606Z,93763.31
2019-02-10T13:28:04.106Z,93758.53
2019-02-10T13:30:35.584Z,93753.43
2019-02-10T13:33:07.067Z,93749.94
2019-02-10T13:35:40.559Z,93749.09
2019-02-10T13:38:12.069Z,93744.58
2019-02-10T13:40:43.522Z,93747.11
2019-02-10T13:43:14.967Z,93747.52
2019-02-10T13:45:46.726Z,93731.81
2019-02-10T13:48:19.276Z,93732.82
2019-02-10T13:50:50.724Z,93727.49
2019-02-10T13:53:22.218Z,93725.09
2019-02-10T13:55:53.702Z,93717.34
2019-02-10T13:58:25.188Z,93713.30
2019-02-10T14:00:56.609Z,93705.75
2019-02-10T14:03:28.098Z,93716.41
2019-02-10T14:05:59.572Z,93712.69
2019-02-10T14:08:31.036Z,93711.66
2019-02-10T14:11:02.525Z,93706.03
2019-02-10T14:13:34.876Z,93703.75
2019-02-10T14:16:06.477Z,93696.50
2019-02-10T14:18:37.960Z,93700.73
2019-02-10T14:21:09.406Z,93695.41
2019-02-10T14:23:40.902Z,93687.94
2019-02-10T14:26:12.378Z,93687.16
2019-02-10T14:28:44.986Z,93683.73
2019-02-10T14:31:16.473Z,93683.12
2019-02-10T14:33:47.973Z,93679.30
2019-02-10T14:36:19.438Z,93686.66
2019-02-10T14:38:50.911Z,93681.61
2019-02-10T14:41:22.362Z,93679.21
2019-02-10T14:43:53.808Z,93682.20
2019-02-10T14:46:25.286Z,93678.95
2019-02-10T14:48:56.807Z,93675.67
2019-02-10T14:51:29.289Z,93676.98
2019-02-10T14:54:00.777Z,93673.15
2019-02-10T14:56:32.310Z,93680.31
2019-02-10T14:59:03.778Z,93689.25
2019-02-10T15:01:36.819Z,93692.09
2019-02-10T15:04:08.404Z,93700.13
2019-02-10T15:06:39.831Z,93700.16
2019-02-10T15:09:11.627Z,93700.44
2019-02-10T15:11:43.069Z,93702.80
2019-02-10T15:14:14.439Z,93696.02
2019-02-10T15:16:45.928Z,93697.28
2019-02-10T15:19:17.385Z,93695.63
2019-02-10T15:21:48.825Z,93686.89
2019-02-10T15:24:20.270Z,93676.36
2019-02-10T15:26:51.694Z,93673.09
2019-02-10T15:29:23.209Z,93664.86
2019-02-10T15:31:54.673Z,93661.63
2019-02-10T15:34:26.188Z,93646.06
2019-02-10T15:36:57.637Z,93651.73
2019-02-10T15:39:29.926Z,93649.72
2019-02-10T15:42:09.074Z,93648.84
2019-02-10T15:44:34.530Z,93654.06
2019-02-10T15:47:06.031Z,93651.27
2019-02-10T15:49:37.485Z,93652.03
2019-02-10T15:52:08.958Z,93653.19
2019-02-10T15:54:40.402Z,93649.66
2019-02-10T15:57:11.887Z,93649.80
2019-02-10T15:59:43.377Z,93651.02
2019-02-10T16:02:14.810Z,93652.13
2019-02-10T16:04:46.300Z,93661.50
2019-02-10T16:07:17.719Z,93648.84
2019-02-10T16:09:50.302Z,93645.05
2019-02-10T16:12:21.719Z,93637.70
2019-02-10T16:14:53.195Z,93640.66
2019-02-10T16:17:24.608Z,93642.63
2019-02-10T16:19:57.097Z,93654.23
2019-02-10T16:22:28.585Z,93658.52
2019-02-10T16:25:00.110Z,93665.30
2019-02-10T16:27:31.614Z,93664.22
2019-02-10T16:30:03.147Z,93676.36
2019-02-10T16:32:34.854Z,93676.48
2019-02-10T16:35:06.836Z,93667.34
2019-02-10T16:37:38.279Z,93661.97
2019-02-10T16:40:13.430Z,93666.44
2019-02-10T16:42:44.871Z,93678.12
2019-02-10T16:45:16.413Z,93688.68
2019-02-10T16:47:47.878Z,93693.69
2019-02-10T16:50:19.359Z,93712.22
2019-02-10T16:52:50.818Z,93716.66
2019-02-10T16:55:22.351Z,93705.25
2019-02-10T16:57:54.633Z,93709.53
2019-02-10T17:00:26.247Z,93714.36
2019-02-10T17:02:57.760Z,93697.81
2019-02-10T17:05:29.221Z,93679.23
2019-02-10T17:08:00.851Z,93675.45
2019-02-10T17:10:32.417Z,93671.81
2019-02-10T17:13:03.922Z,93677.17
2019-02-10T17:15:35.427Z,93690.64
2019-02-10T17:18:06.869Z,93688.28
2019-02-10T17:20:38.360Z,93705.63
2019-02-10T17:23:09.789Z,93700.03
2019-02-10T17:25:41.302Z,93691.71
2019-02-10T17:28:12.785Z,93678.31
2019-02-10T17:30:44.287Z,93677.06
2019-02-10T17:33:15.770Z,93692.48
2019-02-10T17:35:47.276Z,93724.84
2019-02-10T17:38:18.695Z,93732.86
2019-02-10T17:41:08.188Z,93773.13
2019-02-10T17:43:39.638Z,93807.05
2019-02-10T17:46:11.116Z,93821.42
2019-02-10T17:48:42.558Z,93837.66
2019-02-10T17:51:14.041Z,93857.56
2019-02-10T17:53:45.532Z,93880.93
2019-02-10T17:56:17.004Z,93897.04
2019-02-10T17:58:48.448Z,93960.58
2019-02-10T18:01:20.045Z,93969.07
2019-02-10T18:03:51.493Z,93983.88
2019-02-10T18:06:23.065Z,93989.48
2019-02-10T18:08:54.544Z,94001.64
2019-02-10T18:11:31.034Z,94011.98
2019-02-10T18:13:59.239Z,94013.61
2019-02-10T18:16:56.446Z,94037.62
2019-02-10T18:19:49.859Z,94048.39
2019-02-10T18:22:30.021Z,94059.09
2019-02-10T18:25:18.574Z,94069.33
2019-02-10T18:28:15.261Z,94075.77
2019-02-10T18:31:02.098Z,94080.66
2019-02-10T18:33:51.069Z,94093.55
2019-02-10T18:36:48.729Z,94080.90
2019-02-10T18:39:51.547Z,94100.86
2019-02-10T18:42:54.323Z,94122.55
2019-02-10T18:45:34.839Z,94135.80
2019-02-10T18:48:17.775Z,94121.70
2019-02-10T18:51:17.190Z,94121.42
2019-02-10T18:54:06.908Z,94124.20
2019-02-10T18:57:09.357Z,94130.58
2019-02-10T18:59:50.011Z,94140.80
2019-02-10T19:02:32.840Z,94149.32
2019-02-10T19:05:21.961Z,94162.53
2019-02-10T19:08:12.435Z,94175.50
2019-02-10T19:11:00.025Z,94172.44
2019-02-10T19:13:41.700Z,94158.72
2019-02-10T19:16:19.177Z,94157.27
2019-02-10T19:19:13.172Z,94151.73
2019-02-10T19:22:12.686Z,94129.47
2019-02-10T19:25:12.093Z,94158.42
2019-02-10T19:28:14.771Z,94167.05
2019-02-10T19:30:55.474Z,94173.06
2019-02-10T19:33:53.244Z,94167.55
2019-02-10T19:36:43.590Z,94191.84
2019-02-10T19:39:34.299Z,94203.98
2019-02-10T19:42:30.657Z,94209.14
2019-02-10T19:45:27.191Z,94191.69
2019-02-10T19:48:23.290Z,94226.66
2019-02-10T19:51:25.671Z,94220.41
2019-02-10T19:54:21.953Z,94229.55
2019-02-10T19:57:09.277Z,94229.83
2019-02-10T20:00:05.047Z,94222.41
2019-02-10T20:02:57.777Z,94219.23
2019-02-10T20:05:45.834Z,94235.84
2019-02-10T20:08:35.081Z,94237.91
2019-02-10T20:11:34.790Z,94231.73
2019-02-10T20:14:18.656Z,94230.70
2019-02-10T20:17:07.905Z,94236.41
2019-02-10T20:19:56.832Z,94233.28
2019-02-10T20:23:02.312Z,94230.03
2019-02-10T20:25:55.492Z,94246.45
2019-02-10T20:28:57.878Z,94260.76
2019-02-10T20:31:51.214Z,94252.64
2019-02-10T20:34:40.383Z,94247.52
2019-02-10T20:37:42.261Z,94231.09
2019-02-10T20:40:29.680Z,94227.05
2019-02-10T20:43:07.013Z,94235.93
2019-02-10T20:45:57.357Z,94256.02
2019-02-10T20:48:46.405Z,94257.86
2019-02-10T20:51:38.157Z,94261.08
2019-02-10T20:54:21.526Z,94288.34
2019-02-10T20:57:17.761Z,94277.91
2019-02-10T21:00:14.376Z,94285.41
2019-02-10T21:03:03.556Z,94289.14
2019-02-10T21:05:50.741Z,94300.01
2019-02-10T21:08:37.425Z,94289.41
2019-02-10T21:11:28.625Z,94283.91
2019-02-10T21:14:18.959Z,94281.11
2019-02-10T21:17:02.458Z,94298.66
2019-02-10T21:20:07.935Z,94284.37
2019-02-10T21:22:51.966Z,94269.87
2019-02-10T21:25:52.701Z,94248.94
2019-02-10T21:28:39.063Z,94248.16
2019-02-10T21:31:27.862Z,94246.54
2019-02-10T21:34:14.147Z,94250.42
2019-02-10T21:37:13.882Z,94271.17
2019-02-10T21:40:08.570Z,94260.06
2019-02-10T21:42:57.476Z,94251.33
2019-02-10T21:45:46.777Z,94244.78
2019-02-10T21:48:43.232Z,94234.75
2019-02-10T21:51:14.655Z,94231.19
2019-02-10T21:53:46.097Z,94228.11
2019-02-10T21:56:17.470Z,94219.67
2019-02-10T21:58:48.923Z,94206.36
2019-02-10T22:01:20.392Z,94201.53
2019-02-10T22:03:51.812Z,94233.65
2019-02-10T22:06:23.277Z,94233.57
2019-02-10T22:08:54.732Z,94235.17
2019-02-10T22:11:26.155Z,94240.91
2019-02-10T22:13:59.206Z,94238.00
2019-02-10T22:16:30.614Z,94236.33
2019-02-10T22:19:02.067Z,94244.63
2019-02-10T22:21:33.587Z,94247.80
2019-02-10T22:24:05.210Z,94247.63
2019-02-10T22:26:36.728Z,94237.84
2019-02-10T22:29:08.386Z,94241.41
2019-02-10T22:31:39.808Z,94237.00
2019-02-10T22:34:11.602Z,94237.25
2019-02-10T22:36:43.061Z,94236.69
2019-02-10T22:39:14.570Z,94234.76
2019-02-10T22:41:46.106Z,94251.10
2019-02-10T22:44:17.558Z,94246.01
2019-02-10T22:46:48.892Z,94237.64
2019-02-10T22:49:20.321Z,94253.61
2019-02-10T22:51:51.756Z,94255.53
2019-02-10T22:54:23.204Z,94235.09
2019-02-10T22:56:54.694Z,94263.80
2019-02-10T22:59:26.244Z,94256.30
2019-02-10T23:02:00.411Z,94236.38
2019-02-10T23:04:32.157Z,94248.96
2019-02-10T23:07:03.848Z,94254.84
2019-02-10T23:09:36.276Z,94253.98
2019-02-10T23:12:07.698Z,94245.05
2019-02-10T23:14:39.202Z,94257.16
2019-02-10T23:17:10.687Z,94254.77
2019-02-10T23:19:42.250Z,94252.25
2019-02-10T23:22:13.614Z,94261.37
2019-02-10T23:24:45.273Z,94267.63
2019-02-10T23:27:16.627Z,94269.76
2019-02-10T23:29:49.949Z,94257.06
2019-02-10T23:32:21.297Z,94278.69
2019-02-10T23:34:52.731Z,94303.58
2019-02-10T23:37:24.158Z,94293.29
2019-02-10T23:39:55.644Z,94290.02
2019-02-10T23:42:27.090Z,94298.23
2019-02-10T23:44:58.562Z,94308.81
2019-02-10T23:47:30.001Z,94323.93
2019-02-10T23:50:01.448Z,94323.77
2019-02-10T23:52:32.959Z,94334.10
2019-02-10T23:55:04.863Z,94324.97
2019-02-10T23:57:36.307Z,94330.11
